sensor_id;sensor_type;location;lat;lon;timestamp;pressure;altitude;pressure_sealevel;temperature;humidity
55468;BME280;41332;42.702;23.200;2023-05-08T00:01:03;94185.34;;;10.68;76.80
55468;BME280;41332;42.702;23.200;2023-05-08T00:03:29;94185.81;;;10.61;76.49
55468;BME280;41332;42.702;23.200;2023-05-08T00:05:55;94176.09;;;10.62;76.48
55468;BME280;41332;42.702;23.200;2023-05-08T00:08:20;94185.06;;;10.61;76.57
55468;BME280;41332;42.702;23.200;2023-05-08T00:10:46;94176.09;;;10.62;76.55
55468;BME280;41332;42.702;23.200;2023-05-08T00:13:11;94186.09;;;10.68;75.32
55468;BME280;41332;42.702;23.200;2023-05-08T00:15:37;94185.81;;;10.61;76.14
55468;BME280;41332;42.702;23.200;2023-05-08T00:18:02;94188.44;;;10.61;76.16
55468;BME280;41332;42.702;23.200;2023-05-08T00:20:28;94201.72;;;10.65;75.81
55468;BME280;41332;42.702;23.200;2023-05-08T00:22:53;94189.72;;;10.55;76.00
55468;BME280;41332;42.702;23.200;2023-05-08T00:25:19;94195.78;;;10.47;76.78
55468;BME280;41332;42.702;23.200;2023-05-08T00:27:44;94200.28;;;10.29;77.72
55468;BME280;41332;42.702;23.200;2023-05-08T00:30:10;94199.06;;;10.26;77.31
55468;BME280;41332;42.702;23.200;2023-05-08T00:32:35;94202.81;;;10.25;77.68
55468;BME280;41332;42.702;23.200;2023-05-08T00:35:01;94202.19;;;10.19;78.06
55468;BME280;41332;42.702;23.200;2023-05-08T00:37:26;94197.56;;;10.16;78.31
55468;BME280;41332;42.702;23.200;2023-05-08T00:39:51;94190.38;;;10.04;78.43
55468;BME280;41332;42.702;23.200;2023-05-08T00:42:17;94199.28;;;10.12;78.35
55468;BME280;41332;42.702;23.200;2023-05-08T00:44:42;94184.78;;;10.06;78.35
55468;BME280;41332;42.702;23.200;2023-05-08T00:47:08;94191.75;;;10.02;78.20
55468;BME280;41332;42.702;23.200;2023-05-08T00:49:33;94195.47;;;10.01;79.10
55468;BME280;41332;42.702;23.200;2023-05-08T00:52:01;94190.22;;;9.92;79.22
55468;BME280;41332;42.702;23.200;2023-05-08T00:54:29;94195.47;;;9.92;79.73
55468;BME280;41332;42.702;23.200;2023-05-08T00:56:55;94199.81;;;9.97;79.63
55468;BME280;41332;42.702;23.200;2023-05-08T00:59:21;94198.09;;;9.92;79.48
55468;BME280;41332;42.702;23.200;2023-05-08T01:01:49;94201.53;;;9.84;79.67
55468;BME280;41332;42.702;23.200;2023-05-08T01:04:18;94204.47;;;9.82;79.87
55468;BME280;41332;42.702;23.200;2023-05-08T01:06:45;94202.91;;;9.81;79.69
55468;BME280;41332;42.702;23.200;2023-05-08T01:09:11;94202.44;;;9.70;79.78
55468;BME280;41332;42.702;23.200;2023-05-08T01:11:43;94207.84;;;9.74;80.09
55468;BME280;41332;42.702;23.200;2023-05-08T01:17:19;94205.56;;;9.64;80.55
55468;BME280;41332;42.702;23.200;2023-05-08T01:22:28;94211.59;;;9.64;80.55
55468;BME280;41332;42.702;23.200;2023-05-08T01:34:33;94202.16;;;9.63;80.41
55468;BME280;41332;42.702;23.200;2023-05-08T01:37:10;94204.94;;;9.58;81.06
55468;BME280;41332;42.702;23.200;2023-05-08T01:39:40;94195.84;;;9.55;80.82
55468;BME280;41332;42.702;23.200;2023-05-08T01:42:22;94190.13;;;9.45;80.66
55468;BME280;41332;42.702;23.200;2023-05-08T01:44:53;94194.47;;;9.58;79.97
55468;BME280;41332;42.702;23.200;2023-05-08T01:47:23;94192.75;;;9.53;80.21
55468;BME280;41332;42.702;23.200;2023-05-08T01:49:57;94170.59;;;9.33;80.76
55468;BME280;41332;42.702;23.200;2023-05-08T01:52:41;94194.47;;;9.49;80.87
55468;BME280;41332;42.702;23.200;2023-05-08T01:55:11;94189.06;;;9.54;80.24
55468;BME280;41332;42.702;23.200;2023-05-08T01:57:42;94195.09;;;9.46;80.99
55468;BME280;41332;42.702;23.200;2023-05-08T02:00:09;94190.44;;;9.52;80.90
55468;BME280;41332;42.702;23.200;2023-05-08T02:02:35;94198.31;;;9.43;81.48
55468;BME280;41332;42.702;23.200;2023-05-08T02:05:03;94191.38;;;9.47;81.29
55468;BME280;41332;42.702;23.200;2023-05-08T02:07:29;94192.00;;;9.53;80.70
55468;BME280;41332;42.702;23.200;2023-05-08T02:09:56;94192.00;;;9.53;80.71
55468;BME280;41332;42.702;23.200;2023-05-08T02:12:23;94197.09;;;9.58;80.08
55468;BME280;41332;42.702;23.200;2023-05-08T02:14:49;94197.69;;;9.64;79.61
55468;BME280;41332;42.702;23.200;2023-05-08T02:17:17;94199.72;;;9.58;79.69
55468;BME280;41332;42.702;23.200;2023-05-08T02:19:43;94193.38;;;9.50;79.99
55468;BME280;41332;42.702;23.200;2023-05-08T02:22:10;94193.88;;;9.44;80.79
55468;BME280;41332;42.702;23.200;2023-05-08T02:24:38;94200.03;;;9.48;80.51
55468;BME280;41332;42.702;23.200;2023-05-08T02:27:05;94189.22;;;9.40;80.95
55468;BME280;41332;42.702;23.200;2023-05-08T02:29:31;94190.63;;;9.47;81.26
55468;BME280;41332;42.702;23.200;2023-05-08T02:31:59;94194.78;;;9.48;80.18
55468;BME280;41332;42.702;23.200;2023-05-08T02:34:26;94196.31;;;9.49;80.70
55468;BME280;41332;42.702;23.200;2023-05-08T02:36:53;94202.19;;;9.46;80.62
55468;BME280;41332;42.702;23.200;2023-05-08T02:39:19;94204.19;;;9.49;80.62
55468;BME280;41332;42.702;23.200;2023-05-08T02:41:46;94205.09;;;9.44;80.31
55468;BME280;41332;42.702;23.200;2023-05-08T02:44:12;94208.22;;;9.46;80.84
55468;BME280;41332;42.702;23.200;2023-05-08T02:46:47;94208.34;;;9.50;80.69
55468;BME280;41332;42.702;23.200;2023-05-08T02:49:30;94205.44;;;9.51;80.23
55468;BME280;41332;42.702;23.200;2023-05-08T02:54:50;94208.03;;;9.51;80.15
55468;BME280;41332;42.702;23.200;2023-05-08T03:00:17;94200.03;;;9.48;80.14
55468;BME280;41332;42.702;23.200;2023-05-08T03:03:07;94197.41;;;9.48;80.00
55468;BME280;41332;42.702;23.200;2023-05-08T03:05:37;94204.31;;;9.52;79.76
55468;BME280;41332;42.702;23.200;2023-05-08T03:08:10;94194.00;;;9.56;79.19
55468;BME280;41332;42.702;23.200;2023-05-08T03:10:39;94196.63;;;9.56;79.78
55468;BME280;41332;42.702;23.200;2023-05-08T03:13:08;94194.94;;;9.51;79.39
55468;BME280;41332;42.702;23.200;2023-05-08T03:15:41;94202.34;;;9.58;78.91
55468;BME280;41332;42.702;23.200;2023-05-08T03:18:15;94203.09;;;9.59;79.98
55468;BME280;41332;42.702;23.200;2023-05-08T03:20:44;94206.50;;;9.59;79.77
55468;BME280;41332;42.702;23.200;2023-05-08T03:23:12;94208.81;;;9.61;78.94
55468;BME280;41332;42.702;23.200;2023-05-08T03:25:40;94203.72;;;9.64;79.95
55468;BME280;41332;42.702;23.200;2023-05-08T03:28:06;94204.94;;;9.67;79.03
55468;BME280;41332;42.702;23.200;2023-05-08T03:30:36;94210.78;;;9.64;78.63
55468;BME280;41332;42.702;23.200;2023-05-08T03:33:06;94207.25;;;9.51;79.78
55468;BME280;41332;42.702;23.200;2023-05-08T03:35:35;94215.88;;;9.60;79.17
55468;BME280;41332;42.702;23.200;2023-05-08T03:38:04;94209.56;;;9.61;79.36
55468;BME280;41332;42.702;23.200;2023-05-08T03:40:32;94209.25;;;9.63;78.99
55468;BME280;41332;42.702;23.200;2023-05-08T03:43:01;94202.44;;;9.70;79.15
55468;BME280;41332;42.702;23.200;2023-05-08T03:45:29;94206.63;;;9.71;79.04
55468;BME280;41332;42.702;23.200;2023-05-08T03:47:55;94218.03;;;9.76;79.16
55468;BME280;41332;42.702;23.200;2023-05-08T03:50:21;94212.78;;;9.76;79.60
55468;BME280;41332;42.702;23.200;2023-05-08T03:52:47;94217.25;;;9.84;79.32
55468;BME280;41332;42.702;23.200;2023-05-08T03:55:12;94216.47;;;9.92;78.78
55468;BME280;41332;42.702;23.200;2023-05-08T03:58:04;94224.66;;;9.99;79.52
55468;BME280;41332;42.702;23.200;2023-05-08T04:00:46;94212.59;;;9.98;79.06
55468;BME280;41332;42.702;23.200;2023-05-08T04:03:20;94227.38;;;10.12;79.12
55468;BME280;41332;42.702;23.200;2023-05-08T04:09:17;94229.19;;;10.29;78.76
55468;BME280;41332;42.702;23.200;2023-05-08T04:12:08;94228.56;;;10.32;79.18
55468;BME280;41332;42.702;23.200;2023-05-08T04:14:42;94234.00;;;10.35;78.63
55468;BME280;41332;42.702;23.200;2023-05-08T04:17:10;94229.00;;;10.43;78.35
55468;BME280;41332;42.702;23.200;2023-05-08T04:19:44;94227.28;;;10.47;78.23
55468;BME280;41332;42.702;23.200;2023-05-08T04:22:11;94233.88;;;10.62;78.33
55468;BME280;41332;42.702;23.200;2023-05-08T04:24:42;94228.78;;;10.65;77.46
55468;BME280;41332;42.702;23.200;2023-05-08T04:27:09;94230.56;;;10.74;77.77
55468;BME280;41332;42.702;23.200;2023-05-08T04:29:35;94224.19;;;10.83;77.50
55468;BME280;41332;42.702;23.200;2023-05-08T04:32:03;94235.28;;;10.89;78.01
55468;BME280;41332;42.702;23.200;2023-05-08T04:34:30;94238.41;;;10.82;79.74
55468;BME280;41332;42.702;23.200;2023-05-08T04:36:56;94234.97;;;10.91;79.39
55468;BME280;41332;42.702;23.200;2023-05-08T04:39:21;94236.16;;;11.02;78.10
55468;BME280;41332;42.702;23.200;2023-05-08T04:41:47;94237.66;;;11.12;77.56
55468;BME280;41332;42.702;23.200;2023-05-08T04:44:13;94233.53;;;11.23;77.15
55468;BME280;41332;42.702;23.200;2023-05-08T04:46:38;94224.63;;;11.36;75.37
55468;BME280;41332;42.702;23.200;2023-05-08T04:49:04;94227.84;;;11.42;75.63
55468;BME280;41332;42.702;23.200;2023-05-08T04:51:29;94225.13;;;11.51;73.53
55468;BME280;41332;42.702;23.200;2023-05-08T04:53:56;94227.38;;;11.61;72.86
55468;BME280;41332;42.702;23.200;2023-05-08T04:56:21;94225.06;;;11.60;77.22
55468;BME280;41332;42.702;23.200;2023-05-08T04:58:47;94223.91;;;11.48;73.82
55468;BME280;41332;42.702;23.200;2023-05-08T05:01:12;94213.56;;;11.64;76.54
55468;BME280;41332;42.702;23.200;2023-05-08T05:03:37;94209.97;;;11.69;73.23
55468;BME280;41332;42.702;23.200;2023-05-08T05:06:03;94214.25;;;11.74;72.64
55468;BME280;41332;42.702;23.200;2023-05-08T05:08:29;94213.38;;;11.69;73.06
55468;BME280;41332;42.702;23.200;2023-05-08T05:10:54;94207.41;;;11.60;71.84
55468;BME280;41332;42.702;23.200;2023-05-08T05:13:20;94197.75;;;11.85;72.31
55468;BME280;41332;42.702;23.200;2023-05-08T05:15:45;94206.78;;;11.97;71.74
55468;BME280;41332;42.702;23.200;2023-05-08T05:18:11;94208.25;;;12.07;71.09
55468;BME280;41332;42.702;23.200;2023-05-08T05:20:37;94212.69;;;12.27;70.21
55468;BME280;41332;42.702;23.200;2023-05-08T05:23:02;94211.72;;;12.44;70.38
55468;BME280;41332;42.702;23.200;2023-05-08T05:25:28;94218.28;;;12.63;69.65
55468;BME280;41332;42.702;23.200;2023-05-08T05:27:53;94213.56;;;12.56;67.22
55468;BME280;41332;42.702;23.200;2023-05-08T05:30:19;94219.72;;;12.60;66.66
55468;BME280;41332;42.702;23.200;2023-05-08T05:32:44;94223.56;;;12.63;66.23
55468;BME280;41332;42.702;23.200;2023-05-08T05:35:10;94210.94;;;12.68;67.25
55468;BME280;41332;42.702;23.200;2023-05-08T05:37:35;94217.97;;;12.89;65.17
55468;BME280;41332;42.702;23.200;2023-05-08T05:40:01;94212.25;;;12.99;65.63
55468;BME280;41332;42.702;23.200;2023-05-08T05:42:27;94214.00;;;13.08;65.66
55468;BME280;41332;42.702;23.200;2023-05-08T05:44:52;94212.47;;;12.94;65.40
55468;BME280;41332;42.702;23.200;2023-05-08T05:47:17;94220.13;;;13.12;64.60
55468;BME280;41332;42.702;23.200;2023-05-08T05:49:43;94212.22;;;13.24;65.02
55468;BME280;41332;42.702;23.200;2023-05-08T05:52:11;94217.56;;;13.40;65.06
55468;BME280;41332;42.702;23.200;2023-05-08T05:54:37;94213.72;;;13.50;64.64
55468;BME280;41332;42.702;23.200;2023-05-08T05:57:03;94210.25;;;13.62;64.22
55468;BME280;41332;42.702;23.200;2023-05-08T05:59:29;94199.94;;;13.85;63.78
55468;BME280;41332;42.702;23.200;2023-05-08T06:01:54;94200.38;;;14.03;64.07
55468;BME280;41332;42.702;23.200;2023-05-08T06:04:19;94197.06;;;14.06;62.23
55468;BME280;41332;42.702;23.200;2023-05-08T06:06:45;94183.13;;;13.77;62.98
55468;BME280;41332;42.702;23.200;2023-05-08T06:09:10;94189.88;;;14.07;64.12
55468;BME280;41332;42.702;23.200;2023-05-08T06:11:35;94197.31;;;14.17;64.00
55468;BME280;41332;42.702;23.200;2023-05-08T06:14:01;94189.81;;;14.03;63.48
55468;BME280;41332;42.702;23.200;2023-05-08T06:16:26;94194.41;;;14.06;64.23
55468;BME280;41332;42.702;23.200;2023-05-08T06:18:52;94189.22;;;14.10;63.27
55468;BME280;41332;42.702;23.200;2023-05-08T06:21:17;94191.97;;;14.13;63.97
55468;BME280;41332;42.702;23.200;2023-05-08T06:23:43;94194.34;;;14.18;62.88
55468;BME280;41332;42.702;23.200;2023-05-08T06:26:08;94199.63;;;14.18;62.91
55468;BME280;41332;42.702;23.200;2023-05-08T06:28:33;94201.69;;;14.25;62.24
55468;BME280;41332;42.702;23.200;2023-05-08T06:30:59;94200.25;;;14.28;61.83
55468;BME280;41332;42.702;23.200;2023-05-08T06:33:24;94201.84;;;14.48;63.15
55468;BME280;41332;42.702;23.200;2023-05-08T06:35:50;94195.00;;;14.63;61.50
55468;BME280;41332;42.702;23.200;2023-05-08T06:38:15;94206.47;;;14.83;61.20
55468;BME280;41332;42.702;23.200;2023-05-08T06:40:42;94210.03;;;14.91;60.50
55468;BME280;41332;42.702;23.200;2023-05-08T06:43:08;94207.59;;;15.02;58.32
55468;BME280;41332;42.702;23.200;2023-05-08T06:45:33;94210.50;;;15.13;59.46
55468;BME280;41332;42.702;23.200;2023-05-08T06:47:59;94208.97;;;15.12;59.83
55468;BME280;41332;42.702;23.200;2023-05-08T06:50:24;94210.72;;;15.24;60.85
55468;BME280;41332;42.702;23.200;2023-05-08T06:52:49;94203.34;;;15.33;60.34
55468;BME280;41332;42.702;23.200;2023-05-08T06:55:15;94203.16;;;15.42;59.79
55468;BME280;41332;42.702;23.200;2023-05-08T06:57:40;94216.31;;;15.38;61.21
55468;BME280;41332;42.702;23.200;2023-05-08T07:00:09;94216.78;;;15.44;59.90
55468;BME280;41332;42.702;23.200;2023-05-08T07:02:35;94216.22;;;15.54;60.87
55468;BME280;41332;42.702;23.200;2023-05-08T07:05:01;94228.91;;;15.64;59.03
55468;BME280;41332;42.702;23.200;2023-05-08T07:07:27;94220.78;;;15.54;60.01
55468;BME280;41332;42.702;23.200;2023-05-08T07:09:52;94222.66;;;15.53;60.85
55468;BME280;41332;42.702;23.200;2023-05-08T07:12:18;94213.53;;;15.70;59.31
55468;BME280;41332;42.702;23.200;2023-05-08T07:14:44;94210.47;;;15.88;58.84
55468;BME280;41332;42.702;23.200;2023-05-08T07:17:09;94214.38;;;15.94;58.05
55468;BME280;41332;42.702;23.200;2023-05-08T07:19:35;94205.81;;;15.81;58.49
55468;BME280;41332;42.702;23.200;2023-05-08T07:22:00;94212.97;;;15.80;58.42
55468;BME280;41332;42.702;23.200;2023-05-08T07:24:26;94208.09;;;15.82;57.93
55468;BME280;41332;42.702;23.200;2023-05-08T07:26:51;94224.66;;;15.79;57.92
55468;BME280;41332;42.702;23.200;2023-05-08T07:29:17;94214.19;;;15.83;58.32
55468;BME280;41332;42.702;23.200;2023-05-08T07:31:42;94218.47;;;15.72;57.58
55468;BME280;41332;42.702;23.200;2023-05-08T07:34:09;94223.41;;;15.73;57.24
55468;BME280;41332;42.702;23.200;2023-05-08T07:36:35;94213.47;;;15.86;57.93
55468;BME280;41332;42.702;23.200;2023-05-08T07:39:00;94222.31;;;15.94;57.47
55468;BME280;41332;42.702;23.200;2023-05-08T07:41:26;94213.19;;;15.91;58.20
55468;BME280;41332;42.702;23.200;2023-05-08T07:43:51;94224.31;;;16.01;58.80
55468;BME280;41332;42.702;23.200;2023-05-08T07:46:17;94217.88;;;16.21;58.25
55468;BME280;41332;42.702;23.200;2023-05-08T07:48:42;94221.25;;;16.41;57.80
55468;BME280;41332;42.702;23.200;2023-05-08T07:51:11;94230.72;;;16.65;58.24
55468;BME280;41332;42.702;23.200;2023-05-08T07:53:37;94223.59;;;16.93;56.86
55468;BME280;41332;42.702;23.200;2023-05-08T07:56:02;94225.22;;;17.01;55.96
55468;BME280;41332;42.702;23.200;2023-05-08T07:58:28;94223.19;;;17.21;55.81
55468;BME280;41332;42.702;23.200;2023-05-08T08:00:53;94221.97;;;17.42;57.01
55468;BME280;41332;42.702;23.200;2023-05-08T08:03:18;94223.66;;;17.57;55.33
55468;BME280;41332;42.702;23.200;2023-05-08T08:05:44;94216.22;;;17.67;54.50
55468;BME280;41332;42.702;23.200;2023-05-08T08:08:09;94219.09;;;17.88;55.40
55468;BME280;41332;42.702;23.200;2023-05-08T08:10:35;94227.31;;;18.10;53.54
55468;BME280;41332;42.702;23.200;2023-05-08T08:13:00;94220.00;;;18.00;53.56
55468;BME280;41332;42.702;23.200;2023-05-08T08:15:26;94217.84;;;17.78;54.98
55468;BME280;41332;42.702;23.200;2023-05-08T08:17:53;94222.53;;;17.92;54.76
55468;BME280;41332;42.702;23.200;2023-05-08T08:20:18;94210.81;;;17.93;54.26
55468;BME280;41332;42.702;23.200;2023-05-08T08:22:44;94212.59;;;17.86;55.58
55468;BME280;41332;42.702;23.200;2023-05-08T08:25:09;94209.75;;;17.98;55.26
55468;BME280;41332;42.702;23.200;2023-05-08T08:27:35;94204.00;;;17.96;55.68
55468;BME280;41332;42.702;23.200;2023-05-08T08:30:00;94207.50;;;18.04;55.46
55468;BME280;41332;42.702;23.200;2023-05-08T08:32:26;94210.72;;;18.20;55.19
55468;BME280;41332;42.702;23.200;2023-05-08T08:34:51;94204.94;;;18.11;54.61
55468;BME280;41332;42.702;23.200;2023-05-08T08:37:16;94204.47;;;18.02;55.03
55468;BME280;41332;42.702;23.200;2023-05-08T08:39:42;94199.81;;;17.95;55.35
55468;BME280;41332;42.702;23.200;2023-05-08T08:42:07;94197.84;;;17.88;55.63
55468;BME280;41332;42.702;23.200;2023-05-08T08:44:33;94188.47;;;17.98;55.90
55468;BME280;41332;42.702;23.200;2023-05-08T08:46:59;94189.34;;;18.09;55.57
55468;BME280;41332;42.702;23.200;2023-05-08T08:49:30;94178.78;;;18.17;56.37
55468;BME280;41332;42.702;23.200;2023-05-08T08:52:06;94179.19;;;18.19;56.51
55468;BME280;41332;42.702;23.200;2023-05-08T08:54:39;94182.09;;;18.06;56.97
55468;BME280;41332;42.702;23.200;2023-05-08T08:57:06;94177.13;;;18.01;57.51
55468;BME280;41332;42.702;23.200;2023-05-08T08:59:32;94169.72;;;17.87;56.29
55468;BME280;41332;42.702;23.200;2023-05-08T09:02:05;94173.09;;;17.80;56.29
55468;BME280;41332;42.702;23.200;2023-05-08T09:04:33;94156.44;;;17.87;57.48
55468;BME280;41332;42.702;23.200;2023-05-08T09:06:58;94161.00;;;17.87;57.48
55468;BME280;41332;42.702;23.200;2023-05-08T09:09:24;94142.53;;;17.98;56.73
55468;BME280;41332;42.702;23.200;2023-05-08T09:11:51;94133.91;;;18.08;59.79
55468;BME280;41332;42.702;23.200;2023-05-08T09:14:17;94121.72;;;18.03;58.65
55468;BME280;41332;42.702;23.200;2023-05-08T09:16:43;94124.06;;;18.12;56.99
55468;BME280;41332;42.702;23.200;2023-05-08T09:19:13;94126.81;;;18.23;57.16
55468;BME280;41332;42.702;23.200;2023-05-08T09:21:39;94137.47;;;18.26;57.03
55468;BME280;41332;42.702;23.200;2023-05-08T09:24:05;94147.41;;;18.33;56.95
55468;BME280;41332;42.702;23.200;2023-05-08T09:26:35;94150.03;;;18.29;57.70
55468;BME280;41332;42.702;23.200;2023-05-08T09:29:12;94149.53;;;18.17;56.04
55468;BME280;41332;42.702;23.200;2023-05-08T09:31:42;94151.81;;;18.18;57.93
55468;BME280;41332;42.702;23.200;2023-05-08T09:34:10;94159.91;;;18.29;56.09
55468;BME280;41332;42.702;23.200;2023-05-08T09:36:37;94160.69;;;18.33;57.82
55468;BME280;41332;42.702;23.200;2023-05-08T09:39:09;94159.94;;;18.36;57.11
55468;BME280;41332;42.702;23.200;2023-05-08T09:41:58;94159.13;;;18.25;56.82
55468;BME280;41332;42.702;23.200;2023-05-08T09:44:24;94163.69;;;18.28;56.05
55468;BME280;41332;42.702;23.200;2023-05-08T09:46:50;94158.50;;;18.42;58.27
55468;BME280;41332;42.702;23.200;2023-05-08T09:49:16;94162.44;;;18.63;56.65
55468;BME280;41332;42.702;23.200;2023-05-08T09:51:51;94162.19;;;18.83;57.34
55468;BME280;41332;42.702;23.200;2023-05-08T09:54:19;94158.41;;;18.87;55.10
55468;BME280;41332;42.702;23.200;2023-05-08T09:56:45;94152.72;;;18.89;55.99
55468;BME280;41332;42.702;23.200;2023-05-08T10:01:48;94152.50;;;19.12;55.55
55468;BME280;41332;42.702;23.200;2023-05-08T10:04:14;94158.56;;;19.09;54.86
55468;BME280;41332;42.702;23.200;2023-05-08T10:06:39;94154.78;;;19.14;55.35
55468;BME280;41332;42.702;23.200;2023-05-08T10:09:06;94157.44;;;19.06;54.15
55468;BME280;41332;42.702;23.200;2023-05-08T10:11:31;94147.78;;;18.87;54.97
55468;BME280;41332;42.702;23.200;2023-05-08T10:13:57;94142.78;;;18.78;55.10
55468;BME280;41332;42.702;23.200;2023-05-08T10:16:23;94147.84;;;18.91;55.30
55468;BME280;41332;42.702;23.200;2023-05-08T10:18:51;94138.41;;;19.08;55.60
55468;BME280;41332;42.702;23.200;2023-05-08T10:21:21;94138.47;;;19.22;55.04
55468;BME280;41332;42.702;23.200;2023-05-08T10:23:50;94134.28;;;19.21;54.65
55468;BME280;41332;42.702;23.200;2023-05-08T10:26:24;94133.53;;;19.24;53.92
55468;BME280;41332;42.702;23.200;2023-05-08T10:28:56;94128.56;;;19.19;55.40
55468;BME280;41332;42.702;23.200;2023-05-08T10:31:27;94132.34;;;19.11;54.70
55468;BME280;41332;42.702;23.200;2023-05-08T10:33:54;94134.16;;;18.92;55.14
55468;BME280;41332;42.702;23.200;2023-05-08T10:36:22;94129.22;;;18.98;56.24
55468;BME280;41332;42.702;23.200;2023-05-08T10:38:48;94129.38;;;19.23;56.43
55468;BME280;41332;42.702;23.200;2023-05-08T10:41:14;94125.81;;;18.98;56.02
55468;BME280;41332;42.702;23.200;2023-05-08T10:43:43;94123.22;;;19.19;56.63
55468;BME280;41332;42.702;23.200;2023-05-08T10:49:39;94118.72;;;19.23;57.57
55468;BME280;41332;42.702;23.200;2023-05-08T10:52:14;94113.81;;;19.43;54.47
55468;BME280;41332;42.702;23.200;2023-05-08T10:57:18;94107.09;;;19.93;53.20
55468;BME280;41332;42.702;23.200;2023-05-08T10:59:46;94095.31;;;20.12;52.17
55468;BME280;41332;42.702;23.200;2023-05-08T11:02:12;94096.06;;;20.20;52.03
55468;BME280;41332;42.702;23.200;2023-05-08T11:04:38;94093.03;;;20.11;51.46
55468;BME280;41332;42.702;23.200;2023-05-08T11:07:04;94090.75;;;20.09;50.70
55468;BME280;41332;42.702;23.200;2023-05-08T11:09:44;94077.03;;;20.29;49.20
55468;BME280;41332;42.702;23.200;2023-05-08T11:15:02;94078.13;;;20.78;53.14
55468;BME280;41332;42.702;23.200;2023-05-08T11:17:30;94065.13;;;20.69;50.12
55468;BME280;41332;42.702;23.200;2023-05-08T11:19:57;94065.91;;;20.66;50.25
55468;BME280;41332;42.702;23.200;2023-05-08T11:22:25;94069.34;;;20.67;50.11
55468;BME280;41332;42.702;23.200;2023-05-08T11:27:30;94060.59;;;20.66;50.10
55468;BME280;41332;42.702;23.200;2023-05-08T11:35:56;94052.53;;;20.91;48.25
55468;BME280;41332;42.702;23.200;2023-05-08T11:38:30;94047.16;;;21.06;46.65
55468;BME280;41332;42.702;23.200;2023-05-08T11:40:57;94037.94;;;21.21;48.12
55468;BME280;41332;42.702;23.200;2023-05-08T11:45:52;94025.56;;;21.46;44.99
55468;BME280;41332;42.702;23.200;2023-05-08T11:48:19;94020.28;;;21.38;45.52
55468;BME280;41332;42.702;23.200;2023-05-08T11:50:45;94027.91;;;21.33;45.76
55468;BME280;41332;42.702;23.200;2023-05-08T11:53:11;94025.78;;;21.10;45.37
55468;BME280;41332;42.702;23.200;2023-05-08T11:55:37;94017.72;;;21.13;46.33
55468;BME280;41332;42.702;23.200;2023-05-08T11:58:11;94024.69;;;20.92;46.40
55468;BME280;41332;42.702;23.200;2023-05-08T12:00:40;94016.34;;;20.83;46.16
55468;BME280;41332;42.702;23.200;2023-05-08T12:03:06;94018.28;;;20.65;46.88
55468;BME280;41332;42.702;23.200;2023-05-08T12:05:31;94016.41;;;20.47;47.07
55468;BME280;41332;42.702;23.200;2023-05-08T12:07:58;94020.25;;;20.35;47.51
55468;BME280;41332;42.702;23.200;2023-05-08T12:10:23;94016.81;;;20.42;48.05
55468;BME280;41332;42.702;23.200;2023-05-08T12:12:49;94008.81;;;20.42;48.91
55468;BME280;41332;42.702;23.200;2023-05-08T12:15:14;94019.06;;;20.58;47.49
55468;BME280;41332;42.702;23.200;2023-05-08T12:17:40;94017.53;;;20.57;46.93
55468;BME280;41332;42.702;23.200;2023-05-08T12:20:14;94003.44;;;20.60;48.22
55468;BME280;41332;42.702;23.200;2023-05-08T12:22:40;94015.25;;;20.73;47.17
55468;BME280;41332;42.702;23.200;2023-05-08T12:25:09;94006.09;;;20.71;46.79
55468;BME280;41332;42.702;23.200;2023-05-08T12:27:36;94002.28;;;20.65;47.81
55468;BME280;41332;42.702;23.200;2023-05-08T12:30:10;94005.31;;;20.78;46.61
55468;BME280;41332;42.702;23.200;2023-05-08T12:32:37;94007.59;;;20.83;47.61
55468;BME280;41332;42.702;23.200;2023-05-08T12:35:08;93996.09;;;20.89;47.84
55468;BME280;41332;42.702;23.200;2023-05-08T12:37:34;94006.38;;;21.02;46.49
55468;BME280;41332;42.702;23.200;2023-05-08T12:39:59;94005.22;;;20.99;46.01
55468;BME280;41332;42.702;23.200;2023-05-08T12:42:44;94008.25;;;20.98;46.61
55468;BME280;41332;42.702;23.200;2023-05-08T12:45:24;94004.44;;;21.06;45.77
55468;BME280;41332;42.702;23.200;2023-05-08T12:47:51;94002.56;;;20.96;45.54
55468;BME280;41332;42.702;23.200;2023-05-08T12:50:19;93990.03;;;20.89;46.35
55468;BME280;41332;42.702;23.200;2023-05-08T12:52:46;93994.59;;;20.85;45.82
55468;BME280;41332;42.702;23.200;2023-05-08T12:55:28;93995.03;;;20.76;45.63
55468;BME280;41332;42.702;23.200;2023-05-08T13:00:35;93994.63;;;20.81;45.87
55468;BME280;41332;42.702;23.200;2023-05-08T13:03:01;93990.03;;;20.78;46.57
55468;BME280;41332;42.702;23.200;2023-05-08T13:05:27;93985.44;;;20.82;46.92
55468;BME280;41332;42.702;23.200;2023-05-08T13:07:58;93989.69;;;20.76;47.92
55468;BME280;41332;42.702;23.200;2023-05-08T13:10:24;93996.91;;;20.75;48.80
55468;BME280;41332;42.702;23.200;2023-05-08T13:12:50;93993.47;;;20.82;48.73
55468;BME280;41332;42.702;23.200;2023-05-08T13:15:16;93993.50;;;20.79;49.98
55468;BME280;41332;42.702;23.200;2023-05-08T13:17:41;93992.34;;;20.69;49.35
55468;BME280;41332;42.702;23.200;2023-05-08T13:20:07;94006.88;;;20.57;49.55
55468;BME280;41332;42.702;23.200;2023-05-08T13:22:33;93999.66;;;20.47;50.78
55468;BME280;41332;42.702;23.200;2023-05-08T13:24:58;94002.72;;;20.38;50.81
55468;BME280;41332;42.702;23.200;2023-05-08T13:27:24;94013.81;;;20.18;50.64
55468;BME280;41332;42.702;23.200;2023-05-08T13:29:49;94016.50;;;20.04;50.83
55468;BME280;41332;42.702;23.200;2023-05-08T13:32:15;94024.88;;;19.91;50.82
55468;BME280;41332;42.702;23.200;2023-05-08T13:34:40;94024.84;;;19.81;52.08
55468;BME280;41332;42.702;23.200;2023-05-08T13:37:06;94023.31;;;19.76;51.99
55468;BME280;41332;42.702;23.200;2023-05-08T13:39:31;94032.84;;;19.81;52.58
55468;BME280;41332;42.702;23.200;2023-05-08T13:42:01;94033.59;;;19.77;52.48
55468;BME280;41332;42.702;23.200;2023-05-08T13:44:26;94025.59;;;19.67;53.40